Time;durP1;ratioP1;P1;durP2;ratioP2;P2;SDS_P1;SDS_P2;PMS_P1;PMS_P2;Temp;Humidity;BMP_temperature;BMP_pressure;BME280_temperature;BME280_humidity;BME280_pressure;Samples;Min_cycle;Max_cycle;Signal;HPM_P1;HPM_P2
2023/12/22 00:02:20;;;;;;;17.97;4.20;;;4.60;99.90;;;;;;5017450;28;20796;-76
2023/12/22 00:04:46;;;;;;;16.43;3.90;;;4.50;99.90;;;;;;5019197;28;20844;-76
2023/12/22 00:07:13;;;;;;;20.33;4.40;;;4.50;99.90;;;;;;5022767;28;21019;-78
2023/12/22 00:09:40;;;;;;;15.77;4.03;;;4.50;99.90;;;;;;5017702;28;20242;-75
2023/12/22 00:12:07;;;;;;;17.13;3.87;;;4.50;99.90;;;;;;5034143;28;21016;-76
2023/12/22 00:14:34;;;;;;;13.63;3.70;;;4.40;99.90;;;;;;5019614;28;20220;-76
2023/12/22 00:17:00;;;;;;;16.17;4.00;;;4.40;99.90;;;;;;5017836;28;20934;-76
2023/12/22 00:19:28;;;;;;;13.97;3.63;;;4.40;99.90;;;;;;5019220;28;20234;-76
2023/12/22 00:21:55;;;;;;;17.73;3.90;;;4.40;99.90;;;;;;5021019;28;20234;-75
2023/12/22 00:24:22;;;;;;;19.83;4.13;;;4.30;99.90;;;;;;5019653;28;20775;-75
2023/12/22 00:26:48;;;;;;;17.07;4.17;;;4.30;99.90;;;;;;5016420;28;20712;-75
2023/12/22 00:29:15;;;;;;;20.17;4.33;;;4.30;99.90;;;;;;5017524;28;20927;-76
2023/12/22 00:31:41;;;;;;;16.50;4.27;;;4.30;99.90;;;;;;5018366;28;20226;-76
2023/12/22 00:34:08;;;;;;;15.83;3.73;;;4.30;99.90;;;;;;5018203;28;20225;-76
2023/12/22 00:36:36;;;;;;;19.67;4.07;;;4.20;99.90;;;;;;5018115;28;20238;-76
2023/12/22 00:39:04;;;;;;;15.67;3.73;;;4.30;99.90;;;;;;5022766;28;20983;-76
2023/12/22 00:41:30;;;;;;;22.63;4.73;;;4.30;99.90;;;;;;5018379;28;20308;-75
2023/12/22 00:43:56;;;;;;;20.00;4.70;;;4.30;99.90;;;;;;5020070;28;20223;-75
2023/12/22 00:46:23;;;;;;;16.40;4.10;;;4.30;99.90;;;;;;5013348;28;20219;-75
2023/12/22 00:48:49;;;;;;;19.17;4.50;;;4.30;99.90;;;;;;5021631;28;21037;-75
2023/12/22 00:51:17;;;;;;;17.53;5.03;;;4.40;99.90;;;;;;5020520;28;20235;-75
2023/12/22 00:53:45;;;;;;;25.10;5.23;;;4.40;99.90;;;;;;5016423;28;21099;-75
2023/12/22 00:56:13;;;;;;;20.23;4.33;;;4.50;99.90;;;;;;5022054;28;20255;-75
2023/12/22 00:58:40;;;;;;;16.67;3.90;;;4.50;99.90;;;;;;5020018;28;20241;-75
2023/12/22 01:01:06;;;;;;;16.50;3.60;;;4.60;99.90;;;;;;5019289;28;20701;-75
2023/12/22 01:03:33;;;;;;;22.47;5.03;;;4.60;99.90;;;;;;5018768;28;20227;-75
2023/12/22 01:06:00;;;;;;;13.33;4.57;;;4.60;99.90;;;;;;5017509;28;20227;-75
2023/12/22 01:08:26;;;;;;;18.00;3.20;;;4.60;99.90;;;;;;5021931;28;20231;-75
2023/12/22 01:10:54;;;;;;;12.90;3.30;;;4.70;99.90;;;;;;5018738;28;20233;-75
2023/12/22 01:13:21;;;;;;;20.17;3.80;;;4.70;99.90;;;;;;5017100;28;20753;-75
2023/12/22 01:15:47;;;;;;;21.33;4.03;;;4.70;99.90;;;;;;5017921;28;20219;-75
2023/12/22 01:18:14;;;;;;;17.43;4.57;;;4.70;99.90;;;;;;5019780;28;20235;-74
2023/12/22 01:20:41;;;;;;;21.83;4.47;;;4.70;99.90;;;;;;5015071;28;20231;-75
2023/12/22 01:23:08;;;;;;;18.83;4.40;;;4.80;99.90;;;;;;5015298;28;20220;-75
2023/12/22 01:25:34;;;;;;;19.27;5.00;;;4.80;99.90;;;;;;5013818;28;20227;-75
2023/12/22 01:28:02;;;;;;;19.13;4.83;;;4.80;99.90;;;;;;5017930;28;20232;-75
2023/12/22 01:30:29;;;;;;;18.17;4.13;;;4.80;99.90;;;;;;5013458;28;20236;-75
2023/12/22 01:32:56;;;;;;;18.00;4.00;;;4.80;99.90;;;;;;5021368;28;20227;-75
2023/12/22 01:35:23;;;;;;;13.30;3.23;;;4.80;99.90;;;;;;5012057;28;20274;-76
2023/12/22 01:37:51;;;;;;;11.07;2.90;;;4.70;99.90;;;;;;5017582;28;20237;-75
2023/12/22 01:40:18;;;;;;;11.93;3.57;;;4.70;99.90;;;;;;5020370;28;20296;-75
2023/12/22 01:42:45;;;;;;;10.43;3.30;;;4.60;99.90;;;;;;5018493;28;20230;-75
2023/12/22 01:45:13;;;;;;;12.40;3.33;;;4.50;99.90;;;;;;5016765;28;20230;-75
2023/12/22 01:47:41;;;;;;;8.97;2.17;;;4.40;99.90;;;;;;5014105;28;20237;-75
2023/12/22 01:50:10;;;;;;;6.87;2.00;;;4.30;99.90;;;;;;5017830;28;20325;-74
2023/12/22 01:52:37;;;;;;;6.37;1.80;;;4.10;99.90;;;;;;5014505;28;20228;-75
2023/12/22 01:55:05;;;;;;;7.57;2.23;;;4.00;99.90;;;;;;5015775;28;20711;-75
2023/12/22 01:57:34;;;;;;;7.83;1.47;;;3.80;99.90;;;;;;5021381;28;20221;-75
2023/12/22 02:00:01;;;;;;;8.70;1.90;;;3.60;99.90;;;;;;5019259;28;20233;-75
2023/12/22 02:02:42;;;;;;;8.93;2.20;;;3.50;99.90;;;;;;5013215;28;20221;-75
2023/12/22 02:05:11;;;;;;;6.33;1.40;;;3.40;99.90;;;;;;5015911;28;20229;-75
2023/12/22 02:07:39;;;;;;;3.27;1.00;;;3.30;99.90;;;;;;5019414;28;20725;-74
2023/12/22 02:10:07;;;;;;;5.30;1.17;;;3.20;99.90;;;;;;5019397;28;20231;-74
2023/12/22 02:12:35;;;;;;;2.83;0.87;;;3.10;99.90;;;;;;5014448;28;20252;-75
2023/12/22 02:15:02;;;;;;;5.00;1.00;;;3.00;99.90;;;;;;5016026;28;20232;-74
2023/12/22 02:17:36;;;;;;;4.87;1.20;;;2.90;99.90;;;;;;5014917;28;20221;-74
2023/12/22 02:20:07;;;;;;;5.23;1.37;;;2.90;99.90;;;;;;5021162;28;20233;-75
2023/12/22 02:22:35;;;;;;;6.53;1.57;;;2.90;99.90;;;;;;5019426;28;20236;-74
2023/12/22 02:25:02;;;;;;;5.27;1.23;;;2.80;99.90;;;;;;5012531;28;20299;-75
2023/12/22 02:27:35;;;;;;;4.33;1.60;;;2.80;99.90;;;;;;5016212;28;20731;-75
2023/12/22 02:30:08;;;;;;;5.70;1.50;;;2.70;99.90;;;;;;5011940;28;20251;-76
2023/12/22 02:32:37;;;;;;;7.00;1.30;;;2.70;99.90;;;;;;5014593;28;20473;-75
2023/12/22 02:35:09;;;;;;;6.37;1.97;;;2.70;99.90;;;;;;5017845;28;20937;-76
2023/12/22 02:37:39;;;;;;;4.17;1.53;;;2.70;99.90;;;;;;5016717;28;20228;-74
2023/12/22 02:40:08;;;;;;;7.33;1.60;;;2.70;99.90;;;;;;5009970;28;20229;-75
2023/12/22 02:42:36;;;;;;;10.07;1.63;;;2.70;99.90;;;;;;5010775;28;20224;-75
2023/12/22 02:45:04;;;;;;;8.63;1.87;;;2.70;99.90;;;;;;5016906;28;20213;-75
2023/12/22 02:47:32;;;;;;;8.30;1.67;;;2.70;99.90;;;;;;5023015;28;20776;-76
2023/12/22 02:49:59;;;;;;;9.80;2.00;;;2.70;99.90;;;;;;5013157;28;20231;-75
2023/12/22 02:52:25;;;;;;;7.27;1.73;;;2.80;99.90;;;;;;5013941;28;20225;-75
2023/12/22 02:54:53;;;;;;;8.87;2.07;;;2.80;99.90;;;;;;5014120;28;20226;-75
2023/12/22 02:57:20;;;;;;;11.30;2.93;;;2.80;99.90;;;;;;5010668;28;20223;-76
2023/12/22 02:59:47;;;;;;;8.93;1.93;;;2.80;99.90;;;;;;5018824;28;20220;-76
2023/12/22 03:02:14;;;;;;;13.13;2.20;;;2.80;99.90;;;;;;5017227;28;20217;-76
2023/12/22 03:04:40;;;;;;;9.83;1.87;;;2.80;99.90;;;;;;5021245;28;20311;-76
2023/12/22 03:07:07;;;;;;;10.17;2.10;;;2.80;99.90;;;;;;5015799;28;20241;-76
2023/12/22 03:09:34;;;;;;;7.33;1.93;;;2.80;99.90;;;;;;5017300;28;20225;-76
2023/12/22 03:12:02;;;;;;;7.27;1.60;;;2.80;99.90;;;;;;5024665;23;20233;-92
2023/12/22 03:14:30;;;;;;;8.97;1.70;;;2.80;99.90;;;;;;5008554;28;20320;-93
2023/12/22 03:16:57;;;;;;;7.83;2.00;;;2.80;99.90;;;;;;4996699;28;20242;-93
2023/12/22 03:19:24;;;;;;;6.53;1.33;;;2.80;99.90;;;;;;5003834;28;20430;-93
2023/12/22 03:21:50;;;;;;;4.70;1.37;;;2.80;99.90;;;;;;5003320;28;20217;-92
2023/12/22 03:24:18;;;;;;;5.10;1.40;;;2.80;99.90;;;;;;4990810;28;20491;-93
2023/12/22 03:26:45;;;;;;;2.70;1.10;;;2.70;99.90;;;;;;4987415;28;20743;-93
2023/12/22 03:29:13;;;;;;;3.60;0.90;;;2.70;99.90;;;;;;4982670;28;20309;-93
2023/12/22 03:31:40;;;;;;;5.87;1.20;;;2.60;99.90;;;;;;4981828;28;20313;-92
2023/12/22 03:34:07;;;;;;;2.57;0.77;;;2.60;99.90;;;;;;4977171;28;20226;-93
2023/12/22 03:36:34;;;;;;;3.73;1.23;;;2.50;99.90;;;;;;4997117;28;20282;-93
2023/12/22 03:39:01;;;;;;;3.63;0.80;;;2.40;99.90;;;;;;4982708;28;20257;-93
2023/12/22 03:41:29;;;;;;;5.50;1.30;;;2.40;99.90;;;;;;4990867;28;20233;-93
2023/12/22 03:43:55;;;;;;;6.23;1.03;;;2.30;99.90;;;;;;4986797;28;20315;-92
2023/12/22 03:46:24;;;;;;;7.13;1.40;;;2.30;99.90;;;;;;4986017;28;20333;-93
2023/12/22 03:48:51;;;;;;;5.43;1.07;;;2.30;99.90;;;;;;4986927;28;20234;-93
2023/12/22 03:51:18;;;;;;;4.03;0.83;;;2.20;99.90;;;;;;4976420;28;20290;-93
2023/12/22 03:53:45;;;;;;;7.20;1.07;;;2.10;99.90;;;;;;4981230;28;20222;-92
2023/12/22 03:56:12;;;;;;;5.33;1.40;;;2.10;99.90;;;;;;4981288;28;20309;-92
2023/12/22 03:58:39;;;;;;;6.50;1.57;;;2.10;99.90;;;;;;4985294;28;20233;-92
2023/12/22 04:01:07;;;;;;;5.83;1.20;;;2.10;99.90;;;;;;4980876;28;20219;-92
2023/12/22 04:03:35;;;;;;;4.43;1.30;;;2.10;99.90;;;;;;4982247;28;20725;-92
2023/12/22 04:06:03;;;;;;;6.93;1.30;;;2.10;99.90;;;;;;4982363;28;20226;-93
2023/12/22 04:08:30;;;;;;;8.17;1.93;;;2.00;99.90;;;;;;4998180;28;20238;-93
2023/12/22 04:10:57;;;;;;;5.10;1.20;;;2.00;99.90;;;;;;4995126;28;20234;-94
2023/12/22 04:13:23;;;;;;;5.63;1.13;;;2.00;99.90;;;;;;4994843;28;20218;-92
2023/12/22 04:15:50;;;;;;;7.80;1.60;;;2.00;99.90;;;;;;4990809;28;20288;-93
2023/12/22 04:18:17;;;;;;;9.80;1.40;;;2.00;99.90;;;;;;4991381;28;20217;-93
2023/12/22 04:20:45;;;;;;;7.70;1.67;;;2.00;99.90;;;;;;4987811;28;20283;-94
2023/12/22 04:23:12;;;;;;;9.03;1.73;;;2.10;99.90;;;;;;4988264;28;20218;-93
2023/12/22 04:25:39;;;;;;;14.00;2.57;;;2.00;99.90;;;;;;5003580;28;20372;-93
2023/12/22 04:28:06;;;;;;;12.10;2.13;;;2.10;99.90;;;;;;5009517;28;20711;-93
2023/12/22 04:30:32;;;;;;;11.80;2.47;;;2.20;99.90;;;;;;5008837;28;20250;-94
2023/12/22 04:32:59;;;;;;;15.43;2.83;;;2.20;99.90;;;;;;5022825;28;20264;-94
2023/12/22 04:35:26;;;;;;;13.87;2.37;;;2.30;99.90;;;;;;4993786;28;20293;-94
2023/12/22 04:37:54;;;;;;;16.93;2.43;;;2.40;99.90;;;;;;4996700;28;20305;-93
2023/12/22 04:40:21;;;;;;;14.97;2.53;;;2.40;99.90;;;;;;4990302;28;20308;-94
2023/12/22 04:42:47;;;;;;;8.57;2.20;;;2.50;99.90;;;;;;4994306;28;20218;-94
2023/12/22 04:45:16;;;;;;;12.10;2.60;;;2.60;99.90;;;;;;4987305;28;20306;-95
2023/12/22 04:47:43;;;;;;;9.97;2.40;;;2.70;99.90;;;;;;4997024;28;20312;-93
2023/12/22 04:50:10;;;;;;;11.87;2.30;;;2.80;99.90;;;;;;4974771;28;20237;-93
2023/12/22 04:52:37;;;;;;;10.27;2.20;;;2.80;99.90;;;;;;4980969;28;20610;-93
2023/12/22 04:55:06;;;;;;;13.07;2.70;;;2.80;99.90;;;;;;4983201;28;20233;-92
2023/12/22 04:57:32;;;;;;;13.77;2.53;;;2.80;99.90;;;;;;4980634;28;20695;-93
2023/12/22 04:59:59;;;;;;;8.90;2.13;;;2.80;99.90;;;;;;4984386;28;20608;-93
2023/12/22 05:02:26;;;;;;;7.77;2.00;;;2.90;99.90;;;;;;4979095;28;20233;-94
2023/12/22 05:04:53;;;;;;;9.43;2.43;;;2.80;99.90;;;;;;4981090;28;20309;-94
2023/12/22 05:07:20;;;;;;;15.93;3.37;;;2.80;99.90;;;;;;4989129;28;20587;-94
2023/12/22 05:09:47;;;;;;;9.63;2.73;;;2.80;99.90;;;;;;4985648;28;20250;-94
2023/12/22 05:12:15;;;;;;;12.83;2.13;;;2.70;99.90;;;;;;4982487;28;20323;-92
2023/12/22 05:14:41;;;;;;;18.97;2.73;;;2.70;99.90;;;;;;4981388;28;20250;-94
2023/12/22 05:17:08;;;;;;;12.93;2.60;;;2.70;99.90;;;;;;4985110;28;20265;-94
2023/12/22 05:19:36;;;;;;;10.73;2.27;;;2.70;99.90;;;;;;4983022;28;20270;-94
2023/12/22 05:22:03;;;;;;;11.43;2.90;;;2.70;99.90;;;;;;4984760;28;20474;-94
2023/12/22 05:24:30;;;;;;;10.57;2.53;;;2.70;99.90;;;;;;4984321;28;20233;-93
2023/12/22 05:26:57;;;;;;;12.93;2.57;;;2.70;99.90;;;;;;4987994;28;20230;-94
2023/12/22 05:29:25;;;;;;;13.10;2.57;;;2.80;99.90;;;;;;4985845;28;20301;-94
2023/12/22 05:31:52;;;;;;;11.50;2.47;;;2.80;99.90;;;;;;4990104;28;20210;-94
2023/12/22 05:34:19;;;;;;;11.03;1.90;;;2.80;99.90;;;;;;4992093;28;20751;-94
2023/12/22 05:36:46;;;;;;;7.90;2.17;;;2.80;99.90;;;;;;4996112;28;20594;-95
2023/12/22 05:39:13;;;;;;;10.47;2.27;;;2.80;99.90;;;;;;4986079;28;20257;-94
2023/12/22 05:41:40;;;;;;;11.90;3.03;;;2.80;99.90;;;;;;4987052;28;20317;-94
2023/12/22 05:44:07;;;;;;;10.77;2.37;;;2.70;99.90;;;;;;4987741;28;20309;-93
2023/12/22 05:46:38;;;;;;;16.57;3.23;;;2.70;99.90;;;;;;4990397;28;20292;-93
2023/12/22 05:49:05;;;;;;;14.87;3.30;;;2.70;99.90;;;;;;4982793;28;20228;-93
2023/12/22 05:51:37;;;;;;;8.57;1.90;;;2.70;99.90;;;;;;4987585;28;20277;-94
2023/12/22 05:54:05;;;;;;;11.33;2.23;;;2.60;99.90;;;;;;5006316;28;20429;-95
2023/12/22 05:56:32;;;;;;;10.13;1.90;;;2.50;99.90;;;;;;5005251;28;20217;-94
2023/12/22 05:58:59;;;;;;;10.10;1.80;;;2.30;99.90;;;;;;5007928;28;20230;-95
2023/12/22 06:01:26;;;;;;;9.53;1.90;;;2.20;99.90;;;;;;5006469;28;20311;-94
2023/12/22 06:03:55;;;;;;;12.60;2.03;;;2.10;99.90;;;;;;5003081;28;20357;-96
2023/12/22 06:06:21;;;;;;;11.13;2.10;;;2.00;99.90;;;;;;5000629;28;20229;-93
2023/12/22 06:08:48;;;;;;;11.13;2.13;;;1.80;99.90;;;;;;5001208;28;20241;-96
2023/12/22 06:11:15;;;;;;;11.57;2.30;;;1.80;99.90;;;;;;4993320;28;20240;-94
2023/12/22 06:13:42;;;;;;;10.50;1.90;;;1.70;99.90;;;;;;5001800;28;20216;-96
2023/12/22 06:16:13;;;;;;;11.23;1.80;;;1.60;99.90;;;;;;5018009;28;20264;-94
2023/12/22 06:18:40;;;;;;;10.57;2.70;;;1.50;99.90;;;;;;4998820;28;20203;-96
2023/12/22 06:21:09;;;;;;;8.97;1.97;;;1.40;99.90;;;;;;5004690;28;20215;-96
2023/12/22 06:23:37;;;;;;;9.47;2.40;;;1.40;99.90;;;;;;5002131;28;20210;-95
2023/12/22 06:26:10;;;;;;;9.13;1.93;;;1.40;99.90;;;;;;5006447;28;20227;-94
2023/12/22 06:28:39;;;;;;;8.97;1.70;;;1.40;99.90;;;;;;5002548;28;20221;-96
2023/12/22 06:31:07;;;;;;;8.93;2.37;;;1.40;99.90;;;;;;5017657;28;20206;-96
2023/12/22 06:33:36;;;;;;;10.10;2.03;;;1.40;99.90;;;;;;4996686;23;20241;-78
2023/12/22 06:36:02;;;;;;;11.97;1.90;;;1.40;99.90;;;;;;4975919;28;20233;-78
2023/12/22 06:38:32;;;;;;;6.43;1.93;;;1.40;99.90;;;;;;4977122;28;20226;-79
2023/12/22 06:40:59;;;;;;;10.80;2.10;;;1.40;99.90;;;;;;4967347;28;20249;-79
2023/12/22 06:43:25;;;;;;;9.20;2.10;;;1.40;99.90;;;;;;4983007;28;20226;-79
2023/12/22 06:45:54;;;;;;;12.40;2.37;;;1.40;99.90;;;;;;4983724;28;20629;-79
2023/12/22 06:48:21;;;;;;;12.43;2.23;;;1.40;99.90;;;;;;4980659;28;20304;-79
2023/12/22 06:50:48;;;;;;;12.80;2.73;;;1.50;99.90;;;;;;4980111;28;20227;-78
2023/12/22 06:53:15;;;;;;;13.80;2.90;;;1.50;99.90;;;;;;4981739;28;20979;-79
2023/12/22 06:55:43;;;;;;;12.87;2.30;;;1.40;99.90;;;;;;4983836;28;20991;-79
2023/12/22 06:58:09;;;;;;;17.20;2.80;;;1.50;99.90;;;;;;4982187;28;20312;-78
2023/12/22 07:00:37;;;;;;;16.33;2.93;;;1.50;99.90;;;;;;4981064;28;20834;-78
2023/12/22 07:03:04;;;;;;;15.60;3.23;;;1.50;99.90;;;;;;4977546;28;20298;-78
2023/12/22 07:05:36;;;;;;;16.93;2.70;;;1.50;99.90;;;;;;4981180;28;20249;-78
2023/12/22 07:08:04;;;;;;;15.87;3.50;;;1.60;99.90;;;;;;4976496;28;20308;-79
2023/12/22 07:10:31;;;;;;;12.07;2.97;;;1.60;99.90;;;;;;4981041;28;20290;-78
2023/12/22 07:12:59;;;;;;;20.67;3.30;;;1.70;99.90;;;;;;4980804;28;20305;-78
2023/12/22 07:15:26;;;;;;;18.00;3.37;;;1.80;99.90;;;;;;4983725;28;20803;-77
2023/12/22 07:17:52;;;;;;;18.47;3.23;;;1.80;99.90;;;;;;4980542;28;20841;-78
2023/12/22 07:20:19;;;;;;;25.13;4.20;;;1.90;99.90;;;;;;5007117;28;20590;-77
2023/12/22 07:22:46;;;;;;;17.60;3.57;;;2.00;99.90;;;;;;4981503;28;20313;-78
2023/12/22 07:25:13;;;;;;;20.13;4.10;;;2.10;99.90;;;;;;4982078;28;20221;-78
2023/12/22 07:27:40;;;;;;;16.73;3.10;;;2.20;99.90;;;;;;4981246;28;20217;-77
2023/12/22 07:30:11;;;;;;;14.47;3.67;;;2.20;99.90;;;;;;4979055;28;20692;-77
2023/12/22 07:32:38;;;;;;;17.10;3.50;;;2.20;99.90;;;;;;4974282;28;20284;-77
2023/12/22 07:35:05;;;;;;;20.50;3.10;;;2.30;99.90;;;;;;5003916;28;20223;-78
2023/12/22 07:37:32;;;;;;;14.93;3.27;;;2.30;99.90;;;;;;4978762;28;20219;-78
2023/12/22 07:39:58;;;;;;;22.37;4.43;;;2.40;99.90;;;;;;4978901;28;20238;-78
2023/12/22 07:42:25;;;;;;;18.47;3.50;;;2.40;99.90;;;;;;4974008;28;20316;-77
2023/12/22 07:44:52;;;;;;;19.10;3.97;;;2.40;99.90;;;;;;4986688;28;20233;-77
2023/12/22 07:47:20;;;;;;;18.33;3.83;;;2.40;99.90;;;;;;4984801;28;20234;-78
2023/12/22 07:49:49;;;;;;;13.90;3.80;;;2.40;99.90;;;;;;4984247;28;20277;-79
2023/12/22 07:52:16;;;;;;;19.93;4.13;;;2.50;99.90;;;;;;4978550;28;20238;-77
2023/12/22 07:54:43;;;;;;;17.83;3.53;;;2.50;99.90;;;;;;4985374;28;20700;-78
2023/12/22 07:57:09;;;;;;;18.60;4.13;;;2.60;99.90;;;;;;4985803;28;20725;-78
2023/12/22 07:59:36;;;;;;;14.83;4.03;;;2.60;99.90;;;;;;4983340;28;21762;-77
2023/12/22 08:02:03;;;;;;;14.73;3.13;;;2.60;99.90;;;;;;4977907;28;20233;-78
2023/12/22 08:04:31;;;;;;;18.93;3.77;;;2.60;99.90;;;;;;4983583;28;20222;-77
2023/12/22 08:06:58;;;;;;;22.33;4.23;;;2.60;99.90;;;;;;4987681;28;20245;-77
2023/12/22 08:09:25;;;;;;;19.33;4.30;;;2.60;99.90;;;;;;4979151;28;20690;-78
2023/12/22 08:11:52;;;;;;;16.17;3.63;;;2.60;99.90;;;;;;4981487;28;20325;-78
2023/12/22 08:14:19;;;;;;;16.37;3.17;;;2.60;99.90;;;;;;4985604;28;20218;-77
2023/12/22 08:16:46;;;;;;;17.67;3.47;;;2.60;99.90;;;;;;4983500;28;20215;-77
2023/12/22 08:19:13;;;;;;;16.47;2.80;;;2.70;99.90;;;;;;4974439;28;20223;-76
2023/12/22 08:21:43;;;;;;;33.63;3.83;;;2.70;99.90;;;;;;4982143;28;20846;-77
2023/12/22 08:24:11;;;;;;;21.10;3.60;;;2.60;99.90;;;;;;4984474;28;20891;-77
2023/12/22 08:26:37;;;;;;;14.40;3.23;;;2.60;99.90;;;;;;5015932;28;20736;-77
2023/12/22 08:29:04;;;;;;;16.63;3.13;;;2.50;99.90;;;;;;4978505;28;20211;-77
2023/12/22 08:31:31;;;;;;;14.33;3.67;;;2.40;99.90;;;;;;4982755;28;20241;-78
2023/12/22 08:33:57;;;;;;;13.70;3.23;;;2.30;99.90;;;;;;4984892;28;20327;-79
2023/12/22 08:36:24;;;;;;;9.63;2.33;;;2.20;99.90;;;;;;4980347;28;20233;-78
2023/12/22 08:38:52;;;;;;;15.60;2.70;;;2.10;99.90;;;;;;4982431;28;20249;-78
2023/12/22 08:41:19;;;;;;;12.47;2.80;;;2.10;99.90;;;;;;4984315;28;20241;-78
2023/12/22 08:43:45;;;;;;;16.43;2.80;;;2.00;99.90;;;;;;4990537;28;20219;-78
2023/12/22 08:46:12;;;;;;;13.43;2.57;;;2.00;99.90;;;;;;4986205;28;20226;-76
2023/12/22 08:48:39;;;;;;;10.63;2.67;;;2.00;99.90;;;;;;4980571;28;20230;-77
2023/12/22 08:51:06;;;;;;;17.87;2.77;;;2.00;99.90;;;;;;4974597;28;20238;-77
2023/12/22 08:53:37;;;;;;;15.90;3.03;;;2.00;99.90;;;;;;4985675;28;20232;-80
2023/12/22 08:56:07;;;;;;;15.50;3.60;;;2.00;99.90;;;;;;4989192;28;20214;-81
2023/12/22 08:58:33;;;;;;;16.83;3.00;;;2.10;99.90;;;;;;4981246;28;20312;-77
2023/12/22 09:01:00;;;;;;;12.03;2.60;;;2.20;99.90;;;;;;4983438;28;20243;-77
2023/12/22 09:03:28;;;;;;;18.63;3.43;;;2.20;99.90;;;;;;4985821;28;20219;-79
2023/12/22 09:05:54;;;;;;;13.90;3.73;;;2.30;99.90;;;;;;4976138;28;21154;-80
2023/12/22 09:08:21;;;;;;;15.23;3.37;;;2.30;99.90;;;;;;4972163;28;20227;-80
2023/12/22 09:10:49;;;;;;;17.57;3.57;;;2.40;99.90;;;;;;4981831;28;20319;-80
2023/12/22 09:13:17;;;;;;;15.60;3.23;;;2.40;99.90;;;;;;5004839;23;20236;-79
2023/12/22 09:15:46;;;;;;;11.07;2.80;;;2.50;99.90;;;;;;4973546;28;20678;-80
2023/12/22 09:18:13;;;;;;;8.13;2.60;;;2.50;99.90;;;;;;4973753;28;20241;-80
2023/12/22 09:20:40;;;;;;;11.17;2.63;;;2.60;99.90;;;;;;4977834;28;20230;-80
2023/12/22 09:23:08;;;;;;;11.70;2.47;;;2.60;99.90;;;;;;4967737;28;20993;-80
2023/12/22 09:25:34;;;;;;;14.87;2.30;;;2.70;99.90;;;;;;4980232;28;20609;-80
2023/12/22 09:28:01;;;;;;;8.93;2.07;;;2.70;99.90;;;;;;4963030;28;20715;-79
2023/12/22 09:30:29;;;;;;;8.57;1.63;;;2.80;99.90;;;;;;4965341;28;20227;-79
2023/12/22 09:32:56;;;;;;;11.63;2.13;;;2.80;99.90;;;;;;4963436;28;20231;-81
2023/12/22 09:35:24;;;;;;;8.07;1.83;;;2.90;99.90;;;;;;4963487;28;20792;-80
2023/12/22 09:37:50;;;;;;;10.50;2.07;;;2.90;99.90;;;;;;4967248;28;20283;-80
2023/12/22 09:40:17;;;;;;;9.43;2.47;;;3.00;99.90;;;;;;4965092;28;20299;-80
2023/12/22 09:42:44;;;;;;;10.40;1.97;;;3.00;99.90;;;;;;4964655;28;20236;-80
2023/12/22 09:45:13;;;;;;;11.40;2.33;;;3.10;99.90;;;;;;4966439;28;20237;-80
2023/12/22 09:47:43;;;;;;;13.10;2.67;;;3.10;99.90;;;;;;4970876;28;20223;-80
2023/12/22 09:50:10;;;;;;;8.80;2.30;;;3.20;99.90;;;;;;4961866;28;20231;-80
2023/12/22 09:52:37;;;;;;;9.53;2.00;;;3.20;99.90;;;;;;4967094;28;20234;-80
2023/12/22 09:55:05;;;;;;;13.97;2.43;;;3.30;99.90;;;;;;4965725;28;20694;-80
2023/12/22 09:57:33;;;;;;;11.80;2.43;;;3.40;99.90;;;;;;4968405;28;20661;-80
2023/12/22 10:00:01;;;;;;;8.47;2.50;;;3.50;99.90;;;;;;4997382;28;21481;-80
2023/12/22 10:02:30;;;;;;;11.97;2.50;;;3.50;99.90;;;;;;4968558;28;20234;-79
2023/12/22 10:04:58;;;;;;;12.60;2.53;;;3.60;99.90;;;;;;4962904;28;20325;-80
2023/12/22 10:07:26;;;;;;;14.17;2.77;;;3.70;99.90;;;;;;4962039;28;20238;-80
2023/12/22 10:09:53;;;;;;;10.53;2.37;;;3.80;99.90;;;;;;4965729;28;20231;-80
2023/12/22 10:12:20;;;;;;;10.40;2.43;;;3.90;99.90;;;;;;4965342;28;20323;-80
2023/12/22 10:14:48;;;;;;;11.30;2.57;;;4.00;99.90;;;;;;4967290;28;20221;-79
2023/12/22 10:17:16;;;;;;;8.90;2.70;;;4.10;99.90;;;;;;4973900;28;20228;-80
2023/12/22 10:19:43;;;;;;;10.30;2.03;;;4.20;99.90;;;;;;4967392;28;20987;-80
2023/12/22 10:22:11;;;;;;;11.07;3.30;;;4.20;99.90;;;;;;4968711;28;20224;-79
2023/12/22 10:24:38;;;;;;;12.87;2.47;;;4.20;99.90;;;;;;4965006;28;20239;-80
2023/12/22 10:27:05;;;;;;;14.93;3.03;;;4.20;99.90;;;;;;4963376;28;20286;-79
2023/12/22 10:29:32;;;;;;;15.17;3.20;;;4.20;99.90;;;;;;4968330;28;20232;-80
2023/12/22 10:32:01;;;;;;;15.07;3.03;;;4.20;99.90;;;;;;4960576;28;20237;-80
2023/12/22 10:34:27;;;;;;;10.90;2.60;;;4.10;99.90;;;;;;4963135;28;20229;-80
2023/12/22 10:36:54;;;;;;;10.63;2.50;;;4.20;99.90;;;;;;4984785;28;20886;-79
2023/12/22 10:39:22;;;;;;;10.40;2.87;;;4.20;99.90;;;;;;4963419;28;20228;-80
2023/12/22 10:41:49;;;;;;;14.43;3.93;;;4.10;99.90;;;;;;4974628;28;20231;-80
2023/12/22 10:44:17;;;;;;;9.60;2.90;;;4.10;99.90;;;;;;4963461;28;20287;-80
2023/12/22 10:46:44;;;;;;;9.43;3.03;;;4.10;99.90;;;;;;4968042;28;20229;-80
2023/12/22 10:49:10;;;;;;;9.30;2.70;;;4.10;99.90;;;;;;4964774;28;20236;-79
2023/12/22 10:51:37;;;;;;;10.07;2.30;;;4.10;99.90;;;;;;4967307;28;20240;-80
2023/12/22 10:54:05;;;;;;;14.20;3.30;;;4.10;99.90;;;;;;4974318;28;20717;-79
2023/12/22 10:56:33;;;;;;;15.07;2.60;;;4.20;99.90;;;;;;4962960;28;20272;-80
2023/12/22 10:59:01;;;;;;;13.63;3.03;;;4.10;99.90;;;;;;4973314;28;20224;-79
2023/12/22 11:01:30;;;;;;;11.30;2.50;;;4.10;99.90;;;;;;4965191;28;20234;-79
2023/12/22 11:04:02;;;;;;;12.57;2.70;;;4.10;99.90;;;;;;4963598;28;20242;-79
2023/12/22 11:06:30;;;;;;;10.23;2.60;;;4.10;99.90;;;;;;4964858;28;20237;-80
2023/12/22 11:08:58;;;;;;;11.73;2.40;;;4.20;99.90;;;;;;4974057;28;20223;-79
2023/12/22 11:11:29;;;;;;;12.23;2.57;;;4.20;99.90;;;;;;4964184;28;20240;-80
2023/12/22 11:13:58;;;;;;;11.67;2.60;;;4.20;99.90;;;;;;4964534;28;20330;-79
2023/12/22 11:16:25;;;;;;;11.00;2.67;;;4.10;99.90;;;;;;4966451;28;20236;-80
2023/12/22 11:18:54;;;;;;;20.00;3.60;;;4.20;99.90;;;;;;4963777;28;20232;-80
2023/12/22 11:21:22;;;;;;;12.90;2.63;;;4.20;99.90;;;;;;4962942;28;20234;-79
2023/12/22 11:23:51;;;;;;;11.97;3.33;;;4.20;99.90;;;;;;4966015;28;20220;-79
2023/12/22 11:26:19;;;;;;;12.17;2.23;;;4.10;99.90;;;;;;4965505;28;20244;-79
2023/12/22 11:28:46;;;;;;;12.73;2.63;;;4.20;99.90;;;;;;4968054;28;20239;-80
2023/12/22 11:31:15;;;;;;;12.03;2.63;;;4.10;99.90;;;;;;4989693;28;20244;-79
2023/12/22 11:33:45;;;;;;;7.67;2.17;;;4.10;99.90;;;;;;4966316;28;20258;-79
2023/12/22 11:36:13;;;;;;;13.97;3.00;;;4.10;99.90;;;;;;4965304;28;20915;-79
2023/12/22 11:38:41;;;;;;;14.97;2.70;;;4.20;99.90;;;;;;4970810;28;20622;-79
2023/12/22 11:41:11;;;;;;;14.60;2.50;;;4.20;99.90;;;;;;4961693;28;20244;-79
2023/12/22 11:43:39;;;;;;;13.67;2.87;;;4.20;99.90;;;;;;4963528;28;20244;-79
2023/12/22 11:46:05;;;;;;;10.53;2.53;;;4.30;99.90;;;;;;4977841;28;20241;-79
2023/12/22 11:48:33;;;;;;;10.60;2.40;;;4.30;99.90;;;;;;4965012;28;20238;-79
2023/12/22 11:51:01;;;;;;;15.67;3.47;;;4.40;99.90;;;;;;4967324;28;20221;-79
2023/12/22 11:53:32;;;;;;;13.43;2.33;;;4.40;99.90;;;;;;4970350;28;20265;-79
2023/12/22 11:55:59;;;;;;;9.63;2.10;;;4.40;99.90;;;;;;4963962;28;20259;-79
2023/12/22 11:58:40;;;;;;;15.50;2.83;;;4.50;99.90;;;;;;4974221;28;20224;-78
2023/12/22 12:01:08;;;;;;;9.80;2.50;;;4.60;99.90;;;;;;4960854;28;20224;-79
2023/12/22 12:03:39;;;;;;;10.20;2.40;;;4.60;99.90;;;;;;4962170;28;20814;-79
2023/12/22 12:06:15;;;;;;;11.57;3.07;;;4.70;99.90;;;;;;4960427;28;20655;-79
2023/12/22 12:08:42;;;;;;;14.57;2.63;;;4.70;99.90;;;;;;4962145;28;20300;-80
2023/12/22 12:11:09;;;;;;;13.93;2.63;;;4.80;99.90;;;;;;4967528;28;20910;-80
2023/12/22 12:13:42;;;;;;;13.30;3.00;;;4.80;99.90;;;;;;4964232;28;20237;-79
2023/12/22 12:16:09;;;;;;;10.40;2.63;;;4.90;99.90;;;;;;4963807;28;20233;-79
2023/12/22 12:18:37;;;;;;;13.17;2.77;;;4.90;99.90;;;;;;4964281;28;20214;-79
2023/12/22 12:21:06;;;;;;;14.53;3.10;;;4.90;99.90;;;;;;4970626;28;20218;-79
2023/12/22 12:23:33;;;;;;;10.43;2.27;;;4.90;99.90;;;;;;4962765;28;20225;-79
2023/12/22 12:26:00;;;;;;;12.80;2.90;;;5.00;99.90;;;;;;4962359;28;20244;-79
2023/12/22 12:28:29;;;;;;;13.13;2.80;;;5.00;99.90;;;;;;4968689;28;20268;-79
2023/12/22 12:31:00;;;;;;;13.37;2.80;;;5.00;99.90;;;;;;4966749;28;20233;-79
2023/12/22 12:33:27;;;;;;;9.33;3.17;;;5.10;99.90;;;;;;4968150;28;20222;-79
2023/12/22 12:35:57;;;;;;;14.00;2.70;;;5.10;99.90;;;;;;4965146;28;20603;-79
2023/12/22 12:38:36;;;;;;;14.97;2.97;;;5.10;99.90;;;;;;5003121;28;20235;-79
2023/12/22 12:41:05;;;;;;;13.00;3.20;;;5.10;99.90;;;;;;4951210;28;20937;-79
2023/12/22 12:43:31;;;;;;;9.17;2.53;;;5.10;99.90;;;;;;4957293;28;20297;-79
2023/12/22 12:46:04;;;;;;;7.93;2.23;;;5.10;99.90;;;;;;4968110;28;20237;-79
2023/12/22 12:48:31;;;;;;;13.27;2.90;;;5.00;99.90;;;;;;4965798;28;20221;-79
2023/12/22 12:51:04;;;;;;;14.77;2.50;;;5.00;99.90;;;;;;4967045;28;20252;-79
2023/12/22 12:53:32;;;;;;;12.67;3.03;;;4.90;99.90;;;;;;4969423;28;20996;-79